Time;durP1;ratioP1;P1;durP2;ratioP2;P2;SDS_P1;SDS_P2;PMS_P1;PMS_P2;Temp;Humidity;BMP_temperature;BMP_pressure;BME280_temperature;BME280_humidity;BME280_pressure;Samples;Min_cycle;Max_cycle;Signal;HPM_P1;HPM_P2
2021/06/04 00:02:05;;;;;;;1.90;1.50;;;;;;;19.75;68.66;100918.69;5060967;28;20040;-82
2021/06/04 00:04:31;;;;;;;2.95;1.80;;;;;;;19.73;69.40;100918.91;5042094;28;20033;-82
2021/06/04 00:06:56;;;;;;;1.83;1.30;;;;;;;19.78;69.24;100922.81;5053957;28;20524;-82
2021/06/04 00:09:22;;;;;;;2.42;1.58;;;;;;;19.78;69.54;100922.81;5057393;28;20132;-82
2021/06/04 00:11:55;;;;;;;2.08;1.60;;;;;;;19.75;67.97;100913.31;5052642;28;20064;-81
2021/06/04 00:14:23;;;;;;;2.08;1.60;;;;;;;19.76;68.50;100912.31;5058227;28;20120;-82
2021/06/04 00:17:01;;;;;;;2.30;1.73;;;;;;;19.74;68.33;100903.63;5048128;28;20391;-83
2021/06/04 00:19:30;;;;;;;1.95;1.42;;;;;;;19.77;69.22;100900.53;5047305;28;20025;-82
2021/06/04 00:22:28;;;;;;;2.33;1.60;;;;;;;19.77;67.83;100899.72;5030497;28;20090;-83
2021/06/04 00:24:55;;;;;;;2.47;2.00;;;;;;;19.72;67.05;100894.94;4997136;28;20410;-82
2021/06/04 00:27:23;;;;;;;2.80;1.92;;;;;;;19.69;67.77;100895.38;5045375;28;20029;-83
2021/06/04 00:29:48;;;;;;;3.50;2.00;;;;;;;19.68;67.13;100891.00;5062516;28;20028;-83
2021/06/04 00:32:16;;;;;;;2.05;1.50;;;;;;;19.66;68.57;100893.88;5043199;28;20040;-83
2021/06/04 00:34:43;;;;;;;3.47;2.45;;;;;;;19.74;69.25;100895.56;5039218;28;20025;-83
2021/06/04 00:37:09;;;;;;;3.17;2.00;;;;;;;19.69;68.20;100892.69;5038801;28;20033;-81
2021/06/04 00:39:37;;;;;;;2.40;1.90;;;;;;;19.66;69.43;100896.56;5039112;28;20037;-82
2021/06/04 00:42:25;;;;;;;2.35;1.92;;;;;;;19.64;69.04;100890.56;5060181;28;20044;-81
2021/06/04 00:44:55;;;;;;;3.50;2.40;;;;;;;19.55;70.98;100897.16;5035700;28;20049;-81
2021/06/04 00:47:21;;;;;;;3.15;2.30;;;;;;;19.52;71.23;100894.84;5059248;28;20044;-80
2021/06/04 00:49:46;;;;;;;2.67;2.00;;;;;;;19.52;71.54;100897.53;5056650;28;20045;-81
2021/06/04 00:52:13;;;;;;;3.05;2.20;;;;;;;19.54;71.12;100892.78;5059269;28;20060;-80
2021/06/04 00:54:41;;;;;;;3.95;2.78;;;;;;;19.53;70.77;100900.03;5059995;28;20100;-80
2021/06/04 00:57:07;;;;;;;4.97;3.15;;;;;;;19.54;73.02;100900.84;5041500;28;20445;-78
2021/06/04 00:59:37;;;;;;;5.43;3.30;;;;;;;19.50;72.34;100899.59;5061175;28;20025;-79
2021/06/04 01:02:05;;;;;;;3.45;3.15;;;;;;;19.52;72.58;100897.53;5059382;28;20092;-79
2021/06/04 01:04:31;;;;;;;6.00;3.17;;;;;;;19.51;71.92;100898.56;5042008;28;20044;-80
2021/06/04 01:07:10;;;;;;;4.03;3.22;;;;;;;19.50;72.77;100896.94;5059299;28;20029;-81
2021/06/04 01:09:49;;;;;;;3.85;3.10;;;;;;;19.47;72.22;100898.16;5050177;28;20131;-80
2021/06/04 01:12:36;;;;;;;4.07;3.15;;;;;;;19.46;72.71;100896.50;5052260;28;20047;-80
2021/06/04 01:15:31;;;;;;;3.35;2.65;;;;;;;19.43;74.21;100898.75;5055461;28;20068;-80
2021/06/04 01:18:04;;;;;;;3.42;2.28;;;;;;;19.44;73.34;100903.09;5048068;28;20028;-78
2021/06/04 01:20:35;;;;;;;2.72;2.35;;;;;;;19.41;72.54;100898.13;5030923;28;20037;-80
2021/06/04 01:23:22;;;;;;;4.03;2.50;;;;;;;19.40;71.79;100896.47;5055737;28;20082;-80
2021/06/04 01:25:52;;;;;;;2.92;2.40;;;;;;;19.40;71.37;100905.34;5055890;28;20029;-79
2021/06/04 01:28:24;;;;;;;2.63;2.03;;;;;;;19.40;71.57;100900.00;5037207;28;20047;-80
2021/06/04 01:30:59;;;;;;;2.10;1.83;;;;;;;19.47;70.52;100902.66;5046461;28;20112;-79
2021/06/04 01:33:40;;;;;;;3.28;2.10;;;;;;;19.43;70.59;100898.75;5053098;28;20029;-80
2021/06/04 01:36:07;;;;;;;3.22;2.30;;;;;;;19.47;69.91;100900.84;5052641;28;20498;-80
2021/06/04 01:38:36;;;;;;;3.28;2.45;;;;;;;19.42;69.32;100897.09;5055644;28;20058;-78
2021/06/04 01:41:07;;;;;;;4.45;2.40;;;;;;;19.29;69.49;100892.50;5054654;28;20041;-78
2021/06/04 01:43:38;;;;;;;3.08;1.90;;;;;;;19.16;69.97;100892.44;5055301;28;20090;-79
2021/06/04 01:46:26;;;;;;;3.38;2.20;;;;;;;19.13;69.65;100892.84;5040820;28;20120;-80
2021/06/04 01:48:53;;;;;;;2.60;2.00;;;;;;;19.04;70.20;100893.03;5064604;28;20044;-79
2021/06/04 01:51:36;;;;;;;1.70;1.45;;;;;;;19.04;70.84;100885.00;5030559;28;20025;-80
2021/06/04 01:54:08;;;;;;;2.70;1.85;;;;;;;18.97;71.25;100888.63;5052886;28;20052;-80
2021/06/04 01:56:40;;;;;;;2.80;1.90;;;;;;;18.86;72.63;100890.84;5047283;28;20394;-79
2021/06/04 01:59:12;;;;;;;2.03;1.65;;;;;;;18.81;71.48;100887.13;5055940;28;20036;-79
2021/06/04 02:01:41;;;;;;;1.90;1.55;;;;;;;18.77;71.12;100883.19;5036034;28;20056;-80
2021/06/04 02:04:36;;;;;;;1.75;1.50;;;;;;;18.80;72.04;100890.81;5053569;28;20406;-80
2021/06/04 02:07:05;;;;;;;3.42;1.75;;;;;;;18.77;71.21;100888.53;5054837;28;20060;-79
2021/06/04 02:09:30;;;;;;;2.53;1.90;;;;;;;18.80;70.70;100888.94;5053653;28;20438;-79
2021/06/04 02:11:57;;;;;;;3.53;2.53;;;;;;;18.88;69.96;100891.50;5048293;28;20033;-79
2021/06/04 02:14:28;;;;;;;3.00;2.17;;;;;;;18.89;70.63;100889.63;5036840;28;20056;-79
2021/06/04 02:17:08;;;;;;;2.05;1.85;;;;;;;18.84;72.26;100889.41;5036343;28;20025;-79
2021/06/04 02:19:54;;;;;;;3.37;2.30;;;;;;;18.78;72.58;100891.03;5036927;28;20041;-79
2021/06/04 02:22:41;;;;;;;3.22;2.78;;;;;;;18.72;74.37;100891.78;5035384;28;20040;-81
2021/06/04 02:25:13;;;;;;;4.57;2.80;;;;;;;18.67;75.25;100902.25;5057953;28;20383;-79
2021/06/04 02:27:49;;;;;;;3.10;2.55;;;;;;;18.64;73.55;100894.63;5058371;28;20041;-79
2021/06/04 02:30:31;;;;;;;2.65;2.15;;;;;;;18.64;74.59;100887.41;5057662;28;20067;-79
2021/06/04 02:33:29;;;;;;;3.83;3.00;;;;;;;18.59;75.38;100886.31;5039939;28;20498;-80
2021/06/04 02:35:59;;;;;;;3.30;2.85;;;;;;;18.50;74.08;100885.66;5048400;28;20041;-79
2021/06/04 02:38:36;;;;;;;4.30;3.15;;;;;;;18.46;75.23;100895.91;5038990;28;20025;-79
2021/06/04 02:41:28;;;;;;;2.90;2.40;;;;;;;18.44;75.47;100906.00;5057154;28;20065;-79
2021/06/04 02:43:57;;;;;;;4.03;3.30;;;;;;;18.37;76.74;100898.94;5055688;28;20650;-79
2021/06/04 02:46:30;;;;;;;4.97;4.00;;;;;;;18.28;76.86;100908.94;5057313;28;20025;-79
2021/06/04 02:48:56;;;;;;;4.53;3.88;;;;;;;18.23;76.81;100903.34;5051987;28;20040;-79
2021/06/04 02:51:33;;;;;;;4.45;3.83;;;;;;;18.17;77.43;100901.44;5040184;28;20033;-80
2021/06/04 02:54:07;;;;;;;4.30;3.30;;;;;;;18.17;76.62;100893.44;5041286;28;20111;-80
2021/06/04 02:56:35;;;;;;;4.10;3.70;;;;;;;18.09;77.19;100899.75;5058185;28;20106;-79
2021/06/04 02:59:10;;;;;;;4.38;3.70;;;;;;;18.03;77.57;100897.81;5058243;28;20048;-79
2021/06/04 03:01:39;;;;;;;4.55;4.00;;;;;;;17.99;77.79;100894.69;5054193;28;20124;-79
2021/06/04 03:04:05;;;;;;;4.35;3.95;;;;;;;17.97;77.20;100898.56;5057717;28;20025;-80
2021/06/04 03:06:36;;;;;;;5.03;4.53;;;;;;;17.88;77.13;100903.25;5056379;28;20530;-79
2021/06/04 03:09:07;;;;;;;4.30;3.75;;;;;;;17.78;77.83;100900.00;5052672;28;20096;-79
2021/06/04 03:11:34;;;;;;;4.20;3.80;;;;;;;17.75;77.63;100895.84;5032643;28;20060;-79
2021/06/04 03:14:06;;;;;;;4.85;3.90;;;;;;;17.73;78.53;100894.41;5040809;28;20025;-79
2021/06/04 03:16:31;;;;;;;4.63;4.13;;;;;;;17.71;78.51;100897.28;5057308;28;20091;-78
2021/06/04 03:19:01;;;;;;;3.95;3.30;;;;;;;17.72;77.38;100901.59;5038979;28;20065;-78
2021/06/04 03:21:31;;;;;;;4.75;3.95;;;;;;;17.72;78.85;100906.13;5056753;28;20107;-79
2021/06/04 03:23:59;;;;;;;4.80;4.30;;;;;;;17.71;77.99;100899.09;5056514;28;20059;-78
2021/06/04 03:26:29;;;;;;;4.88;4.38;;;;;;;17.66;78.44;100901.53;5056150;28;20041;-79
2021/06/04 03:28:57;;;;;;;4.10;3.65;;;;;;;17.61;79.34;100902.09;5056325;28;20032;-79
2021/06/04 03:31:26;;;;;;;3.60;2.83;;;;;;;17.66;77.01;100904.19;5054928;28;20083;-79
2021/06/04 03:33:52;;;;;;;2.45;2.00;;;;;;;17.74;77.98;100912.13;5055495;28;20462;-78
2021/06/04 03:36:23;;;;;;;3.65;2.55;;;;;;;17.78;76.05;100905.34;5055750;28;20093;-79
2021/06/04 03:38:49;;;;;;;2.85;2.28;;;;;;;17.81;76.29;100910.38;5049045;28;20021;-79
2021/06/04 03:41:17;;;;;;;3.53;3.00;;;;;;;17.77;77.67;100904.53;5037724;28;20029;-80
2021/06/04 03:43:43;;;;;;;6.00;4.20;;;;;;;17.69;78.08;100911.84;5056104;28;20032;-78
2021/06/04 03:46:08;;;;;;;5.07;3.63;;;;;;;17.64;77.82;100915.09;5055583;28;20394;-79
2021/06/04 03:48:34;;;;;;;4.75;3.92;;;;;;;17.54;78.56;100919.91;5054050;28;20033;-79
2021/06/04 03:51:07;;;;;;;4.55;4.10;;;;;;;17.48;78.63;100926.84;5056821;28;20110;-79
2021/06/04 03:53:33;;;;;;;3.15;2.83;;;;;;;17.51;78.86;100925.63;5037926;28;20049;-79
2021/06/04 03:55:59;;;;;;;3.78;2.88;;;;;;;17.63;78.34;100937.50;5037755;28;20033;-80
2021/06/04 03:58:26;;;;;;;3.45;3.00;;;;;;;17.73;78.42;100938.03;5055967;28;20087;-79
2021/06/04 04:01:04;;;;;;;4.18;3.60;;;;;;;17.80;78.15;100938.09;5055181;28;20108;-79
2021/06/04 04:03:29;;;;;;;4.10;3.70;;;;;;;17.76;78.53;100940.34;5034105;28;20143;-79
2021/06/04 04:05:55;;;;;;;4.10;3.70;;;;;;;17.73;78.08;100939.88;5056395;28;20061;-79
2021/06/04 04:08:23;;;;;;;3.72;3.10;;;;;;;17.76;77.65;100936.84;5055293;28;20033;-78
2021/06/04 04:10:48;;;;;;;3.80;3.25;;;;;;;17.78;78.16;100940.13;5055892;28;20033;-78
2021/06/04 04:13:16;;;;;;;2.95;2.50;;;;;;;17.83;77.46;100937.75;5055160;28;20087;-79
2021/06/04 04:15:43;;;;;;;3.50;2.70;;;;;;;17.86;77.53;100933.88;5054645;28;20108;-80
2021/06/04 04:18:10;;;;;;;3.35;2.80;;;;;;;17.87;76.75;100935.53;5036492;28;20029;-79
2021/06/04 04:20:47;;;;;;;3.47;2.95;;;;;;;17.89;78.26;100939.66;5036834;28;20029;-79
2021/06/04 04:23:15;;;;;;;3.60;2.85;;;;;;;17.99;76.62;100934.00;5055574;28;20094;-80
2021/06/04 04:25:43;;;;;;;6.20;3.83;;;;;;;18.01;76.19;100930.13;5037147;28;20505;-78
2021/06/04 04:28:17;;;;;;;3.25;2.90;;;;;;;17.98;77.66;100935.03;5051452;28;20037;-79
2021/06/04 04:30:42;;;;;;;3.72;3.33;;;;;;;17.98;78.38;100941.22;5055341;28;20037;-79
2021/06/04 04:33:08;;;;;;;5.13;3.55;;;;;;;17.97;78.06;100949.41;5052706;28;20044;-78
2021/06/04 04:35:36;;;;;;;4.90;3.53;;;;;;;17.97;77.81;100952.94;5045593;28;20033;-79
2021/06/04 04:38:04;;;;;;;3.80;3.35;;;;;;;17.95;78.74;100954.97;5054051;28;20121;-79
2021/06/04 04:40:31;;;;;;;4.45;3.28;;;;;;;17.99;78.04;100956.22;5055083;28;20029;-79
2021/06/04 04:42:57;;;;;;;3.40;3.10;;;;;;;17.98;78.40;100959.94;5054915;28;20029;-79
2021/06/04 04:45:25;;;;;;;5.32;4.82;;;;;;;17.88;78.90;100961.28;5054634;28;20498;-79
2021/06/04 04:47:51;;;;;;;3.72;3.30;;;;;;;17.92;78.62;100959.84;5030868;28;20041;-79
2021/06/04 04:50:18;;;;;;;4.63;3.00;;;;;;;18.02;77.11;100961.22;5037152;28;20444;-78
2021/06/04 04:52:43;;;;;;;3.47;2.90;;;;;;;18.06;77.71;100966.19;5055024;28;20033;-79
2021/06/04 04:55:10;;;;;;;4.05;2.75;;;;;;;18.10;76.98;100975.50;5054531;28;20513;-79
2021/06/04 04:57:36;;;;;;;2.63;2.20;;;;;;;18.22;76.67;100976.66;5037568;28;20029;-79
2021/06/04 05:00:07;;;;;;;3.08;2.70;;;;;;;18.36;76.31;100978.44;5054610;28;20055;-79
2021/06/04 05:02:32;;;;;;;;;;;;;;;18.41;77.18;100992.06;5051338;28;20498;-78
2021/06/04 05:04:58;;;;;;;4.07;3.30;;;;;;;18.42;76.51;100985.72;5056119;28;19927;-80
2021/06/04 05:07:23;;;;;;;3.38;2.50;;;;;;;18.52;76.12;100995.25;5037667;28;20637;-79
2021/06/04 05:09:48;;;;;;;3.40;2.50;;;;;;;18.58;75.99;100992.63;5053114;28;20033;-79
2021/06/04 05:12:14;;;;;;;2.50;2.23;;;;;;;18.63;76.10;100998.22;5035973;28;20036;-80
2021/06/04 05:14:39;;;;;;;4.65;3.80;;;;;;;18.61;76.61;100999.44;5054947;28;20311;-79
2021/06/04 05:17:06;;;;;;;3.25;2.80;;;;;;;18.66;76.24;101002.38;5036625;28;20037;-79
2021/06/04 05:19:31;;;;;;;4.90;4.00;;;;;;;18.77;75.60;101001.06;5054282;28;20110;-79
2021/06/04 05:21:57;;;;;;;4.70;3.40;;;;;;;18.80;75.09;101012.19;5036752;28;20033;-80
2021/06/04 05:24:23;;;;;;;3.50;3.05;;;;;;;18.83;74.73;101013.66;5035831;28;20044;-79
2021/06/04 05:26:48;;;;;;;3.55;3.00;;;;;;;18.82;75.57;101022.72;5055159;28;20174;-79
2021/06/04 05:29:14;;;;;;;4.45;4.00;;;;;;;18.86;75.33;101022.16;5037036;28;20060;-79
2021/06/04 05:31:40;;;;;;;5.60;4.32;;;;;;;18.82;75.91;101018.19;5055151;28;20037;-79
2021/06/04 05:34:06;;;;;;;4.72;3.97;;;;;;;18.85;75.44;101014.31;5028798;28;20264;-79
2021/06/04 05:36:33;;;;;;;5.95;4.95;;;;;;;18.96;75.31;101015.63;5036907;28;20041;-79
2021/06/04 05:39:12;;;;;;;6.90;5.43;;;;;;;19.04;75.92;101015.47;5055107;28;20480;-80
2021/06/04 05:41:40;;;;;;;7.18;5.90;;;;;;;19.14;75.07;101010.63;5051248;28;20033;-79
2021/06/04 05:44:07;;;;;;;4.40;3.88;;;;;;;19.28;75.43;101008.81;5036176;28;20029;-80
2021/06/04 05:46:33;;;;;;;5.22;4.22;;;;;;;19.61;74.83;101018.91;5053025;28;20029;-80
2021/06/04 05:48:58;;;;;;;4.30;3.58;;;;;;;20.05;73.45;101010.44;5036547;28;20494;-78
2021/06/04 05:51:29;;;;;;;6.13;4.35;;;;;;;20.43;73.16;101015.28;5037219;28;20044;-78
2021/06/04 05:53:55;;;;;;;4.47;3.50;;;;;;;21.06;72.59;101012.19;5054767;28;20040;-79
2021/06/04 05:56:22;;;;;;;7.53;5.82;;;;;;;21.35;66.38;101015.44;5039356;28;20116;-80
2021/06/04 05:58:48;;;;;;;5.10;4.47;;;;;;;21.52;67.02;101013.13;5058507;28;20057;-80
2021/06/04 06:01:20;;;;;;;5.38;3.63;;;;;;;21.67;68.01;101012.91;5051243;28;20033;-80
2021/06/04 06:03:45;;;;;;;4.53;4.07;;;;;;;21.89;66.88;101027.69;5056313;28;20101;-80
2021/06/04 06:06:13;;;;;;;5.07;4.30;;;;;;;22.11;66.80;101032.75;5053505;28;20048;-80
2021/06/04 06:08:40;;;;;;;4.90;3.80;;;;;;;22.54;66.19;101024.84;5058074;28;20037;-80
2021/06/04 06:11:06;;;;;;;4.07;3.15;;;;;;;23.04;64.55;101021.34;5056472;28;20029;-79
2021/06/04 06:13:32;;;;;;;4.82;3.75;;;;;;;23.42;62.97;101018.44;5040159;28;20048;-79
2021/06/04 06:15:58;;;;;;;4.70;3.60;;;;;;;23.81;63.29;101021.78;5040831;28;20379;-79
2021/06/04 06:18:25;;;;;;;4.25;3.60;;;;;;;24.26;61.82;101021.31;5056226;28;20036;-80
2021/06/04 06:20:52;;;;;;;5.80;4.63;;;;;;;24.30;60.34;101011.72;5065864;28;20063;-80
2021/06/04 06:23:21;;;;;;;5.05;3.72;;;;;;;24.52;58.02;101017.44;5045897;28;20029;-78
2021/06/04 06:25:54;;;;;;;3.50;3.20;;;;;;;24.68;57.41;101018.63;5057690;28;20033;-79
2021/06/04 06:28:23;;;;;;;5.47;4.60;;;;;;;24.67;59.08;101018.88;5061028;28;20037;-79
2021/06/04 06:30:48;;;;;;;4.55;3.17;;;;;;;24.80;59.07;101015.94;5063413;28;20060;-79
2021/06/04 06:33:14;;;;;;;4.32;3.40;;;;;;;25.05;56.85;101020.28;5057862;28;20205;-79
2021/06/04 06:35:50;;;;;;;3.70;3.17;;;;;;;25.41;55.24;101008.41;5059097;28;20395;-80
2021/06/04 06:38:16;;;;;;;7.40;4.40;;;;;;;25.51;57.06;101019.44;5054157;28;20025;-79
2021/06/04 06:40:43;;;;;;;6.50;5.80;;;;;;;26.13;54.84;101017.97;5036440;28;20457;-80
2021/06/04 06:43:09;;;;;;;9.98;6.72;;;;;;;26.34;53.12;101024.56;5040532;28;20394;-79
2021/06/04 06:45:35;;;;;;;7.50;5.45;;;;;;;26.49;52.79;101022.94;5058573;28;20087;-79
2021/06/04 06:48:00;;;;;;;5.75;4.50;;;;;;;26.51;52.37;101024.59;5051268;28;20037;-79
2021/06/04 06:50:29;;;;;;;4.72;3.42;;;;;;;26.46;51.49;101026.16;5056904;28;20064;-79
2021/06/04 06:52:55;;;;;;;3.65;3.25;;;;;;;26.81;50.29;101019.66;5039981;28;20353;-79
2021/06/04 06:55:21;;;;;;;5.65;3.80;;;;;;;26.65;50.64;101006.97;5057663;28;20033;-80
2021/06/04 06:57:46;;;;;;;4.93;3.88;;;;;;;26.45;50.57;101010.94;5039548;28;20064;-80
2021/06/04 07:00:23;;;;;;;6.35;4.07;;;;;;;26.70;52.02;101015.19;5056977;28;20117;-80
2021/06/04 07:02:49;;;;;;;4.57;3.05;;;;;;;26.59;53.10;101010.66;5051747;28;20041;-79
2021/06/04 07:05:15;;;;;;;4.03;3.15;;;;;;;26.63;49.94;101012.63;5056746;28;20505;-80
2021/06/04 07:07:41;;;;;;;3.92;2.95;;;;;;;26.39;52.86;101014.63;5058068;28;20032;-79
2021/06/04 07:10:09;;;;;;;4.05;2.38;;;;;;;26.17;53.45;101019.09;5057151;28;20033;-80
2021/06/04 07:12:35;;;;;;;2.78;2.15;;;;;;;26.16;53.04;101021.00;5057177;28;20043;-80
2021/06/04 07:15:00;;;;;;;2.53;1.90;;;;;;;26.01;53.75;101018.03;5056839;28;20131;-79
2021/06/04 07:17:28;;;;;;;2.70;2.13;;;;;;;25.88;54.36;101021.00;5057279;28;20389;-79
2021/06/04 07:19:54;;;;;;;2.70;1.92;;;;;;;25.69;53.60;101018.44;5056487;28;20530;-79
2021/06/04 07:22:19;;;;;;;2.75;2.35;;;;;;;25.33;56.00;101020.41;5056033;28;20036;-79
2021/06/04 07:24:45;;;;;;;3.38;3.05;;;;;;;25.20;55.45;101029.63;5057530;28;20040;-79
2021/06/04 07:27:10;;;;;;;2.92;2.17;;;;;;;25.05;58.56;101023.84;5057043;28;20136;-79
2021/06/04 07:29:35;;;;;;;3.92;2.70;;;;;;;24.90;57.36;101029.69;5057135;28;20696;-78
2021/06/04 07:32:01;;;;;;;2.67;2.30;;;;;;;24.83;57.99;101030.88;5056701;28;20033;-79
2021/06/04 07:34:28;;;;;;;2.80;2.05;;;;;;;24.77;56.61;101029.94;5055434;28;20040;-80
2021/06/04 07:36:56;;;;;;;3.40;2.60;;;;;;;24.55;58.69;101035.91;5056740;28;20121;-80
2021/06/04 07:39:25;;;;;;;2.78;2.30;;;;;;;24.37;59.56;101038.66;5057252;28;20045;-78
2021/06/04 07:41:52;;;;;;;7.78;4.88;;;;;;;24.16;59.12;101037.28;5054521;28;20036;-78
2021/06/04 07:44:18;;;;;;;7.45;5.78;;;;;;;24.15;58.74;101035.66;5056883;28;20586;-78
2021/06/04 07:46:44;;;;;;;7.00;4.80;;;;;;;23.87;61.04;101037.03;5056335;28;20044;-80
2021/06/04 07:49:10;;;;;;;8.13;6.40;;;;;;;23.89;59.98;101039.53;5070538;28;20526;-80
2021/06/04 07:51:39;;;;;;;7.45;6.07;;;;;;;23.54;61.35;101035.53;5058949;28;20061;-79
2021/06/04 07:54:06;;;;;;;6.07;5.28;;;;;;;23.31;64.29;101032.69;5055995;28;20037;-79
2021/06/04 07:56:31;;;;;;;6.53;5.80;;;;;;;23.34;63.53;101032.25;5055241;28;20040;-79
2021/06/04 07:58:57;;;;;;;6.45;4.90;;;;;;;23.23;64.75;101036.50;5055354;28;20037;-80
2021/06/04 08:01:22;;;;;;;6.28;5.20;;;;;;;23.38;62.90;101030.72;5048958;28;20087;-79
2021/06/04 08:03:48;;;;;;;5.38;4.63;;;;;;;23.40;62.90;101031.34;5047161;28;20025;-79
2021/06/04 08:06:16;;;;;;;3.38;3.00;;;;;;;23.51;62.88;101022.50;5053781;28;20049;-78
2021/06/04 08:08:42;;;;;;;3.67;2.75;;;;;;;23.69;62.99;101026.22;5036158;28;20100;-78
2021/06/04 08:11:11;;;;;;;2.40;1.90;;;;;;;23.93;63.86;101030.75;5036142;28;20067;-77
2021/06/04 08:13:37;;;;;;;4.40;3.90;;;;;;;24.10;62.06;101022.81;5036267;28;20494;-78
2021/06/04 08:16:10;;;;;;;5.47;3.88;;;;;;;24.14;62.02;101021.28;5036728;28;20033;-78
2021/06/04 08:18:36;;;;;;;3.72;3.20;;;;;;;24.08;64.82;101022.22;5027365;28;20125;-79
2021/06/04 08:21:08;;;;;;;3.53;2.90;;;;;;;24.17;63.73;101017.34;5054284;28;20049;-78
2021/06/04 08:23:37;;;;;;;3.53;2.53;;;;;;;24.28;62.80;101016.53;5036842;28;20037;-78
2021/06/04 08:26:05;;;;;;;4.90;3.97;;;;;;;24.54;62.71;101014.50;5037024;28;20029;-77
2021/06/04 08:28:31;;;;;;;7.32;4.80;;;;;;;24.71;61.57;101011.94;5047122;28;20041;-79
2021/06/04 08:30:58;;;;;;;5.15;4.50;;;;;;;24.97;62.04;101016.06;5054873;28;20025;-77
2021/06/04 08:33:36;;;;;;;4.30;3.03;;;;;;;25.27;61.76;101017.84;5053835;28;20025;-78
2021/06/04 08:36:02;;;;;;;3.50;3.03;;;;;;;26.20;60.46;101014.03;5054586;28;20143;-78
2021/06/04 08:38:35;;;;;;;4.80;3.10;;;;;;;27.05;56.02;101017.59;5036340;28;20402;-79
2021/06/04 08:41:20;;;;;;;3.70;2.92;;;;;;;27.30;55.69;101017.16;5053871;28;20256;-78
2021/06/04 08:44:06;;;;;;;5.50;3.90;;;;;;;27.19;52.31;101023.50;5046027;28;20033;-79
2021/06/04 08:46:37;;;;;;;3.35;2.90;;;;;;;27.26;54.58;101026.88;5053283;28;20039;-79
2021/06/04 08:49:21;;;;;;;5.25;4.00;;;;;;;27.22;54.15;101020.31;5054357;28;20116;-79
2021/06/04 08:52:13;;;;;;;4.68;3.90;;;;;;;27.05;53.64;101019.47;5050629;28;20040;-79
2021/06/04 08:54:47;;;;;;;5.57;3.60;;;;;;;27.01;52.71;101016.47;5053524;28;20037;-79
2021/06/04 08:57:35;;;;;;;4.57;3.13;;;;;;;26.66;54.27;101006.69;5037148;28;20112;-79
2021/06/04 09:00:05;;;;;;;3.55;2.65;;;;;;;26.31;53.07;101017.75;5053390;28;20649;-79
2021/06/04 09:02:41;;;;;;;3.25;2.03;;;;;;;26.40;53.76;101018.97;5050129;28;20048;-79
2021/06/04 09:05:14;;;;;;;4.35;2.85;;;;;;;26.38;53.58;101025.72;5054259;28;20457;-79
2021/06/04 09:07:44;;;;;;;4.07;2.88;;;;;;;26.05;53.11;101027.28;5053752;28;20032;-79
2021/06/04 09:10:36;;;;;;;3.83;2.20;;;;;;;25.87;55.48;101031.03;5053844;28;20025;-79
2021/06/04 09:13:23;;;;;;;3.35;2.22;;;;;;;25.73;54.36;101032.34;5047205;28;20033;-79
2021/06/04 09:15:59;;;;;;;3.42;2.33;;;;;;;25.63;53.79;101027.56;5054406;28;20389;-78
2021/06/04 09:18:34;;;;;;;3.85;2.30;;;;;;;25.71;54.73;101032.56;5034622;28;20072;-79
2021/06/04 09:21:04;;;;;;;4.03;2.50;;;;;;;25.77;54.79;101028.09;5054539;28;20096;-80
2021/06/04 09:23:33;;;;;;;3.38;2.50;;;;;;;25.91;54.27;101034.06;5054537;28;20041;-80
2021/06/04 09:26:00;;;;;;;3.70;2.67;;;;;;;25.76;54.33;101035.38;5049372;28;20463;-78
2021/06/04 09:28:27;;;;;;;4.60;3.45;;;;;;;26.01;53.33;101034.28;5057089;28;20556;-79
2021/06/04 09:31:17;;;;;;;3.28;2.40;;;;;;;25.85;53.90;101036.66;5057415;28;20093;-79
2021/06/04 09:33:49;;;;;;;3.30;2.90;;;;;;;25.98;54.69;101035.59;5059217;28;20041;-79
2021/06/04 09:36:42;;;;;;;5.13;3.85;;;;;;;25.82;55.33;101041.75;5059268;28;20029;-79
2021/06/04 09:39:08;;;;;;;4.00;3.10;;;;;;;25.86;56.51;101042.91;5046579;28;20029;-78
2021/06/04 09:41:42;;;;;;;3.63;2.88;;;;;;;25.86;56.19;101032.09;5059244;28;20518;-79
2021/06/04 09:44:25;;;;;;;3.63;2.70;;;;;;;26.25;57.15;101033.09;5058096;28;20033;-80
2021/06/04 09:46:53;;;;;;;4.88;2.72;;;;;;;26.72;55.33;101032.03;5048273;28;20053;-79
2021/06/04 09:49:43;;;;;;;4.80;2.92;;;;;;;27.25;53.24;101036.09;5055150;28;20041;-79
2021/06/04 09:52:29;;;;;;;4.68;3.30;;;;;;;27.86;51.01;101036.06;5053269;28;20033;-79
2021/06/04 09:55:21;;;;;;;4.53;3.33;;;;;;;27.98;51.89;101021.50;5055409;28;20043;-80
2021/06/04 09:58:12;;;;;;;4.18;3.13;;;;;;;27.78;51.88;101019.38;5040808;28;20029;-79
2021/06/04 10:00:45;;;;;;;;;;;;;;;27.45;52.59;101019.25;5057126;28;20044;-79
2021/06/04 10:03:36;;;;;;;3.67;2.70;;;;;;;27.31;53.36;101024.22;5055359;28;19927;-79
2021/06/04 10:06:05;;;;;;;4.53;3.30;;;;;;;27.21;54.49;101012.41;5039035;28;20025;-79
2021/06/04 10:08:31;;;;;;;6.00;4.50;;;;;;;27.83;50.75;101019.44;5057238;28;20068;-80
2021/06/04 10:11:14;;;;;;;5.85;3.97;;;;;;;27.48;51.50;101013.31;5058642;28;20123;-78
2021/06/04 10:13:50;;;;;;;4.40;3.25;;;;;;;27.47;53.39;101003.50;5058445;28;20442;-78
2021/06/04 10:16:59;;;;;;;3.85;2.70;;;;;;;27.76;50.52;101014.19;5058088;28;20029;-80
2021/06/04 10:19:39;;;;;;;3.95;3.10;;;;;;;27.86;49.96;101003.44;5056308;28;20037;-79
2021/06/04 10:22:05;;;;;;;3.92;3.15;;;;;;;28.10;47.93;100995.81;5053846;28;20486;-78
2021/06/04 10:24:33;;;;;;;3.80;3.00;;;;;;;28.23;48.89;100991.03;5038819;28;20137;-78
2021/06/04 10:27:07;;;;;;;3.85;2.95;;;;;;;28.43;48.94;100988.47;5039642;28;20368;-78
2021/06/04 10:29:32;;;;;;;4.68;3.97;;;;;;;28.64;48.10;100981.31;5058095;28;20627;-79
2021/06/04 10:32:15;;;;;;;3.75;3.10;;;;;;;28.55;48.44;100967.38;5057299;28;20116;-79
2021/06/04 10:34:51;;;;;;;4.53;3.38;;;;;;;28.40;48.61;100967.25;5040565;28;20128;-79
2021/06/04 10:37:22;;;;;;;5.57;3.42;;;;;;;28.45;47.68;100967.28;5055046;28;20025;-78
2021/06/04 10:39:54;;;;;;;6.13;3.85;;;;;;;28.55;47.28;100967.38;5054852;28;20037;-79
2021/06/04 10:42:31;;;;;;;5.00;3.13;;;;;;;28.30;47.60;100972.59;5052436;28;20044;-80
2021/06/04 10:45:09;;;;;;;3.42;2.35;;;;;;;28.21;48.31;100974.16;5057596;28;20040;-79
2021/06/04 10:47:45;;;;;;;3.90;2.50;;;;;;;28.24;48.18;100966.28;5048917;28;20087;-78
2021/06/04 10:50:17;;;;;;;3.13;2.20;;;;;;;28.23;46.15;100969.28;5040248;28;20041;-81
2021/06/04 10:53:01;;;;;;;5.47;2.67;;;;;;;28.48;45.98;100966.78;5056964;28;20029;-80
2021/06/04 10:55:33;;;;;;;3.15;2.30;;;;;;;28.49;46.83;100956.75;5044201;28;20037;-81
2021/06/04 10:58:28;;;;;;;3.75;2.47;;;;;;;28.78;45.46;100962.63;5062354;28;20063;-80
2021/06/04 11:01:00;;;;;;;3.83;2.35;;;;;;;28.91;44.20;100964.06;5062260;28;20123;-80
2021/06/04 11:03:40;;;;;;;4.00;2.55;;;;;;;28.92;44.33;100952.13;5063385;28;20029;-80
2021/06/04 11:06:24;;;;;;;3.55;2.35;;;;;;;28.74;45.17;100953.34;5061148;28;20025;-82
2021/06/04 11:08:50;;;;;;;3.25;2.15;;;;;;;28.78;45.10;100957.19;5043578;28;20052;-81
2021/06/04 11:11:45;;;;;;;3.00;1.93;;;;;;;28.92;44.77;100957.56;5067627;28;20041;-80
2021/06/04 11:14:41;;;;;;;2.83;1.73;;;;;;;29.06;44.19;100950.56;5034861;28;20033;-81
2021/06/04 11:17:18;;;;;;;3.42;2.13;;;;;;;28.86;42.86;100948.53;5047666;28;20036;-81
2021/06/04 11:19:54;;;;;;;2.85;2.10;;;;;;;28.79;45.58;100939.78;5044848;28;20545;-81
2021/06/04 11:22:45;;;;;;;3.92;2.15;;;;;;;28.93;44.27;100932.78;5058386;28;20071;-80
2021/06/04 11:25:32;;;;;;;3.88;2.05;;;;;;;28.96;44.72;100940.44;5031302;28;20053;-79
2021/06/04 11:28:30;;;;;;;2.63;2.30;;;;;;;29.21;41.89;100938.94;5060085;28;20367;-79
2021/06/04 11:31:01;;;;;;;2.58;1.65;;;;;;;29.16;42.43;100926.13;5062104;28;20045;-80
2021/06/04 11:33:31;;;;;;;3.47;2.00;;;;;;;29.44;41.04;100921.31;5045384;28;20033;-80
2021/06/04 11:36:07;;;;;;;3.10;1.55;;;;;;;29.50;39.81;100919.41;5050544;28;20028;-80
2021/06/04 11:38:39;;;;;;;3.70;1.60;;;;;;;29.35;40.51;100917.47;5033844;28;20064;-79
2021/06/04 11:41:12;;;;;;;2.90;1.75;;;;;;;29.41;40.71;100921.81;5036185;28;20033;-80
2021/06/04 11:43:42;;;;;;;2.55;1.65;;;;;;;29.43;41.70;100912.28;5038505;28;20372;-80
2021/06/04 11:46:30;;;;;;;3.25;1.73;;;;;;;29.02;41.98;100903.97;5040021;28;20029;-81
2021/06/04 11:49:19;;;;;;;3.47;1.77;;;;;;;29.30;41.88;100901.13;5030691;28;20038;-82